createdAt,value
2022-11-08T00:00:41.482Z,6.10
2022-11-08T00:03:08.483Z,6.00
2022-11-08T00:05:54.271Z,6.00
2022-11-08T00:08:39.589Z,6.00
2022-11-08T00:11:24.962Z,6.00
2022-11-08T00:13:58.226Z,6.00
2022-11-08T00:16:26.297Z,6.00
2022-11-08T00:18:53.146Z,5.80
2022-11-08T00:21:20.046Z,5.60
2022-11-08T00:23:47.649Z,5.50
2022-11-08T00:26:14.499Z,5.50
2022-11-08T00:28:41.339Z,5.50
2022-11-08T00:31:08.512Z,5.60
2022-11-08T00:33:35.502Z,5.60
2022-11-08T00:36:04.290Z,5.50
2022-11-08T00:38:31.202Z,5.50
2022-11-08T00:40:58.062Z,5.30
2022-11-08T00:43:24.898Z,5.10
2022-11-08T00:45:51.935Z,5.00
2022-11-08T00:48:19.159Z,5.10
2022-11-08T00:50:46.226Z,5.30
2022-11-08T00:53:13.062Z,5.30
2022-11-08T00:55:39.907Z,5.20
2022-11-08T00:58:06.746Z,5.20
2022-11-08T01:00:33.863Z,5.10
2022-11-08T01:03:19.043Z,5.10
2022-11-08T01:05:48.035Z,5.00
2022-11-08T01:08:16.233Z,5.00
2022-11-08T01:10:48.207Z,5.00
2022-11-08T01:13:16.215Z,5.10
2022-11-08T01:15:45.761Z,5.10
2022-11-08T01:18:16.884Z,5.10
2022-11-08T01:20:48.263Z,5.10
2022-11-08T01:23:17.960Z,5.10
2022-11-08T01:25:47.900Z,5.10
2022-11-08T01:28:15.752Z,5.10
2022-11-08T01:30:45.128Z,5.10
2022-11-08T01:33:14.364Z,5.00
2022-11-08T01:35:45.751Z,5.00
2022-11-08T01:38:13.355Z,5.00
2022-11-08T01:40:48.857Z,5.00
2022-11-08T01:43:30.996Z,5.00
2022-11-08T01:46:19.756Z,5.00
2022-11-08T01:49:28.543Z,5.00
2022-11-08T01:52:01.317Z,5.00
2022-11-08T01:54:44.975Z,5.00
2022-11-08T01:57:25.459Z,5.00
2022-11-08T01:59:59.852Z,5.00
2022-11-08T02:02:28.326Z,4.80
2022-11-08T02:04:55.816Z,4.80
2022-11-08T02:07:24.564Z,4.80
2022-11-08T02:09:51.427Z,4.80
2022-11-08T02:12:22.284Z,4.70
2022-11-08T02:14:49.324Z,4.80
2022-11-08T02:17:16.480Z,4.80
2022-11-08T02:19:49.600Z,4.90
2022-11-08T02:22:36.564Z,4.90
2022-11-08T02:25:03.993Z,4.90
2022-11-08T02:27:30.824Z,4.90
2022-11-08T02:29:58.028Z,4.80
2022-11-08T02:32:24.902Z,4.80
2022-11-08T02:34:59.102Z,4.80
2022-11-08T02:37:27.740Z,4.80
2022-11-08T02:39:54.625Z,4.90
2022-11-08T02:42:21.671Z,5.00
2022-11-08T02:44:49.210Z,5.00
2022-11-08T02:47:16.717Z,5.00
2022-11-08T02:49:43.624Z,5.00
2022-11-08T02:52:10.884Z,5.00
2022-11-08T02:54:38.170Z,5.00
2022-11-08T02:57:05.086Z,5.00
2022-11-08T02:59:32.108Z,4.90
2022-11-08T03:02:00.102Z,4.90
2022-11-08T03:04:27.166Z,4.80
2022-11-08T03:06:54.041Z,4.80
2022-11-08T03:09:20.904Z,4.90
2022-11-08T03:11:47.775Z,5.00
2022-11-08T03:14:14.664Z,5.10
2022-11-08T03:16:41.489Z,5.00
2022-11-08T03:19:08.340Z,5.00
2022-11-08T03:21:36.555Z,5.00
2022-11-08T03:24:04.974Z,5.00
2022-11-08T03:26:32.952Z,5.00
2022-11-08T03:28:59.805Z,4.90
2022-11-08T03:31:26.662Z,4.90
2022-11-08T03:33:53.501Z,4.80
2022-11-08T03:36:20.393Z,4.70
2022-11-08T03:38:47.233Z,4.70
2022-11-08T03:41:14.086Z,4.60
2022-11-08T03:43:41.569Z,4.60
2022-11-08T03:46:08.397Z,4.60
2022-11-08T03:48:35.292Z,4.70
2022-11-08T03:51:02.169Z,4.60
2022-11-08T03:53:29.030Z,4.60
2022-11-08T03:55:59.897Z,4.50
2022-11-08T03:58:27.086Z,4.60
2022-11-08T04:00:53.954Z,4.50
2022-11-08T04:03:20.827Z,4.40
2022-11-08T04:05:47.801Z,4.40
2022-11-08T04:08:14.870Z,4.40
2022-11-08T04:10:42.442Z,4.40
2022-11-08T04:13:28.586Z,4.60
2022-11-08T04:15:57.790Z,4.60
2022-11-08T04:18:43.585Z,4.70
2022-11-08T04:21:18.798Z,4.70
2022-11-08T04:23:48.984Z,4.70
2022-11-08T04:26:17.214Z,4.80
2022-11-08T04:28:44.375Z,4.90
2022-11-08T04:31:18.847Z,5.00
2022-11-08T04:33:46.653Z,5.10
2022-11-08T04:36:17.457Z,5.10
2022-11-08T04:38:51.648Z,5.20
2022-11-08T04:41:22.760Z,5.20
2022-11-08T04:43:52.764Z,5.20
2022-11-08T04:46:27.530Z,5.20
2022-11-08T04:48:58.802Z,5.20
2022-11-08T04:51:30.874Z,5.20
2022-11-08T04:54:02.680Z,5.20
2022-11-08T04:56:30.756Z,5.10
2022-11-08T04:59:00.563Z,4.90
2022-11-08T05:01:31.723Z,4.90
2022-11-08T05:03:59.325Z,4.70
2022-11-08T05:06:31.886Z,4.60
2022-11-08T05:09:00.329Z,4.50
2022-11-08T05:11:30.003Z,4.50
2022-11-08T05:13:58.034Z,4.60
2022-11-08T05:16:30.384Z,4.60
2022-11-08T05:18:57.563Z,4.60
2022-11-08T05:21:43.645Z,4.60
2022-11-08T05:24:17.448Z,4.60
2022-11-08T05:26:48.279Z,4.40
2022-11-08T05:29:17.228Z,4.40
2022-11-08T05:31:44.416Z,4.30
2022-11-08T05:34:11.274Z,4.30
2022-11-08T05:36:38.134Z,4.40
2022-11-08T05:39:05.000Z,4.30
2022-11-08T05:41:31.847Z,4.30
2022-11-08T05:43:58.769Z,4.20
2022-11-08T05:46:25.701Z,4.10
2022-11-08T05:48:52.977Z,4.20
2022-11-08T05:51:21.366Z,4.10
2022-11-08T05:53:49.074Z,4.00
2022-11-08T05:56:17.801Z,3.90
2022-11-08T05:58:45.704Z,3.90
2022-11-08T06:01:17.559Z,3.90
2022-11-08T06:03:45.858Z,3.90
2022-11-08T06:06:20.730Z,3.80
2022-11-08T06:08:51.684Z,3.80
2022-11-08T06:11:27.304Z,3.70
2022-11-08T06:13:55.938Z,3.60
2022-11-08T06:16:25.222Z,3.50
2022-11-08T06:18:52.493Z,3.60
2022-11-08T06:21:22.120Z,3.60
2022-11-08T06:23:54.475Z,3.60
2022-11-08T06:26:24.313Z,3.50
2022-11-08T06:28:51.549Z,3.50
2022-11-08T06:31:18.561Z,3.60
2022-11-08T06:33:45.945Z,3.60
2022-11-08T06:36:12.928Z,3.60
2022-11-08T06:38:39.787Z,3.70
2022-11-08T06:41:06.637Z,3.90
2022-11-08T06:43:34.017Z,4.30
2022-11-08T06:46:04.192Z,4.70
2022-11-08T06:48:35.371Z,5.10
2022-11-08T06:51:04.052Z,5.60
2022-11-08T06:53:31.898Z,6.10
2022-11-08T06:56:03.306Z,6.40
2022-11-08T06:58:31.418Z,6.70
2022-11-08T07:01:02.249Z,6.90
2022-11-08T07:03:29.103Z,7.20
2022-11-08T07:05:55.958Z,7.50
2022-11-08T07:08:24.232Z,7.60
2022-11-08T07:10:51.464Z,7.90
2022-11-08T07:13:18.986Z,8.10
2022-11-08T07:15:47.907Z,8.30
2022-11-08T07:18:18.336Z,8.60
2022-11-08T07:20:45.999Z,8.90
2022-11-08T07:23:14.695Z,9.20
2022-11-08T07:25:42.011Z,9.50
2022-11-08T07:28:17.560Z,9.70
2022-11-08T07:30:46.816Z,9.70
2022-11-08T07:33:16.639Z,10.00
2022-11-08T07:35:47.122Z,10.60
2022-11-08T07:38:14.026Z,10.80
2022-11-08T07:40:41.040Z,10.70
2022-11-08T07:43:12.615Z,10.50
2022-11-08T07:45:42.020Z,10.60
2022-11-08T07:48:13.883Z,10.90
2022-11-08T07:50:46.076Z,11.40
2022-11-08T07:53:13.059Z,11.80
2022-11-08T07:55:41.135Z,12.00
2022-11-08T07:58:10.970Z,12.70
2022-11-08T08:00:40.947Z,13.30
2022-11-08T08:03:12.923Z,13.80
2022-11-08T08:05:44.244Z,14.10
2022-11-08T08:08:14.106Z,14.10
2022-11-08T08:10:41.858Z,14.10
2022-11-08T08:13:09.280Z,13.80
2022-11-08T08:15:36.392Z,13.80
2022-11-08T08:18:07.552Z,14.00
2022-11-08T08:20:37.276Z,14.30
2022-11-08T08:23:05.713Z,14.50
2022-11-08T08:25:32.628Z,14.70
2022-11-08T08:28:01.657Z,15.00
2022-11-08T08:30:31.436Z,15.20
2022-11-08T08:33:27.346Z,15.40
2022-11-08T08:35:56.673Z,15.20
2022-11-08T08:38:23.749Z,14.90
2022-11-08T08:40:51.583Z,14.10
2022-11-08T08:43:19.914Z,13.00
2022-11-08T08:45:47.309Z,12.70
2022-11-08T08:48:14.400Z,13.20
2022-11-08T08:50:41.705Z,13.80
2022-11-08T08:53:10.156Z,13.70
2022-11-08T08:55:42.712Z,12.90
2022-11-08T08:58:10.899Z,12.70
2022-11-08T09:03:59.956Z,12.50
2022-11-08T09:06:26.817Z,11.80
2022-11-08T09:08:53.695Z,11.60
2022-11-08T09:11:20.560Z,11.70
2022-11-08T09:13:47.417Z,11.90
2022-11-08T09:16:14.430Z,11.60
2022-11-08T09:18:41.922Z,11.30
2022-11-08T09:21:08.917Z,11.00
2022-11-08T09:23:35.901Z,10.80
2022-11-08T09:26:06.002Z,10.70
2022-11-08T09:28:36.383Z,10.60
2022-11-08T09:31:11.814Z,10.50
2022-11-08T09:33:41.009Z,10.50
2022-11-08T09:36:13.503Z,11.20
2022-11-08T09:38:41.917Z,11.80
2022-11-08T09:41:24.342Z,12.10
2022-11-08T09:44:27.459Z,12.40
2022-11-08T09:47:10.861Z,13.60
2022-11-08T09:50:12.449Z,15.60
2022-11-08T09:52:43.275Z,17.00
2022-11-08T09:55:40.496Z,18.30
2022-11-08T09:58:47.307Z,18.30
2022-11-08T10:01:14.558Z,15.70
2022-11-08T10:03:50.038Z,13.70
2022-11-08T10:06:49.587Z,12.50
2022-11-08T10:09:49.838Z,11.90
2022-11-08T10:12:38.464Z,11.60
2022-11-08T10:15:29.794Z,12.80
2022-11-08T10:18:41.569Z,15.60
2022-11-08T10:21:56.148Z,18.30
2022-11-08T10:24:52.464Z,18.90
2022-11-08T10:27:43.129Z,19.20
2022-11-08T10:30:44.328Z,19.10
2022-11-08T10:33:29.203Z,19.60
2022-11-08T10:36:10.079Z,20.10
2022-11-08T10:39:04.118Z,20.10
2022-11-08T10:42:11.168Z,20.20
2022-11-08T10:44:41.599Z,20.40
2022-11-08T10:47:31.066Z,20.10
2022-11-08T10:50:03.718Z,19.30
2022-11-08T10:52:58.303Z,18.80
2022-11-08T10:55:36.683Z,18.40
2022-11-08T10:58:40.750Z,16.90
2022-11-08T11:01:22.600Z,15.80
2022-11-08T11:03:52.967Z,15.30
2022-11-08T11:06:33.335Z,15.50
2022-11-08T11:09:19.148Z,16.60
2022-11-08T11:11:46.427Z,17.40
2022-11-08T11:14:22.750Z,17.90
2022-11-08T11:17:18.663Z,19.50
2022-11-08T11:19:57.232Z,20.90
2022-11-08T11:22:34.587Z,21.10
2022-11-08T11:25:22.640Z,20.20
2022-11-08T11:28:00.468Z,18.40
2022-11-08T11:30:34.640Z,17.30
2022-11-08T11:33:29.866Z,17.30
2022-11-08T11:36:15.381Z,17.20
2022-11-08T11:39:10.353Z,16.60
2022-11-08T11:41:53.451Z,16.20
2022-11-08T11:44:41.408Z,15.30
2022-11-08T11:47:50.697Z,14.90
2022-11-08T11:50:35.341Z,15.60
2022-11-08T11:53:16.712Z,17.10
2022-11-08T11:56:20.456Z,17.90
2022-11-08T11:59:01.456Z,17.20
2022-11-08T12:01:55.046Z,17.20
2022-11-08T12:05:11.683Z,17.70
2022-11-08T12:08:02.470Z,18.40
2022-11-08T12:11:13.395Z,17.70
2022-11-08T12:14:14.484Z,18.90
2022-11-08T12:17:35.272Z,20.80
2022-11-08T12:20:26.694Z,19.10
2022-11-08T12:23:27.636Z,17.70
2022-11-08T12:26:32.412Z,18.60
2022-11-08T12:29:24.202Z,20.80
2022-11-08T12:32:10.102Z,21.50
2022-11-08T12:35:04.773Z,22.90
2022-11-08T12:38:26.834Z,23.60
2022-11-08T12:41:23.168Z,23.40
2022-11-08T12:44:17.698Z,21.10
2022-11-08T12:47:26.611Z,18.80
2022-11-08T12:50:23.977Z,18.30
2022-11-08T12:53:26.517Z,17.50
2022-11-08T12:55:58.279Z,16.90
2022-11-08T12:58:48.841Z,16.60
2022-11-08T13:01:19.541Z,16.50
2022-11-08T13:04:20.396Z,17.80
2022-11-08T13:07:05.207Z,18.30
2022-11-08T13:10:18.953Z,18.70
2022-11-08T13:13:46.089Z,20.40
2022-11-08T13:16:25.049Z,20.40
2022-11-08T13:19:07.540Z,19.40
2022-11-08T13:21:41.878Z,20.50
2022-11-08T13:24:42.248Z,21.50
2022-11-08T13:27:24.521Z,21.90
2022-11-08T13:29:53.263Z,20.40
2022-11-08T13:33:00.658Z,19.90
2022-11-08T13:35:47.961Z,19.70
2022-11-08T13:38:51.615Z,20.60
2022-11-08T13:41:25.404Z,19.50
2022-11-08T13:43:56.101Z,18.20
2022-11-08T13:46:25.540Z,17.90
2022-11-08T13:48:58.381Z,18.10
2022-11-08T13:51:40.161Z,18.70
2022-11-08T13:54:22.351Z,20.40
2022-11-08T13:57:01.051Z,21.50
2022-11-08T13:59:31.044Z,21.70
2022-11-08T14:02:29.617Z,20.40
2022-11-08T14:05:31.479Z,18.40
2022-11-08T14:08:19.712Z,16.50
2022-11-08T14:11:41.954Z,15.00
2022-11-08T14:14:43.496Z,14.30
2022-11-08T14:17:31.441Z,13.70
2022-11-08T14:20:46.210Z,13.40
2022-11-08T14:23:19.273Z,13.10
2022-11-08T14:26:03.397Z,12.80
2022-11-08T14:28:39.731Z,12.60
2022-11-08T14:31:33.107Z,12.90
2022-11-08T14:34:02.109Z,12.70
2022-11-08T14:36:32.273Z,12.30
2022-11-08T14:39:17.947Z,12.10
2022-11-08T14:41:55.531Z,12.00
2022-11-08T14:44:24.581Z,12.20
2022-11-08T14:46:53.193Z,12.80
2022-11-08T14:49:36.443Z,13.60
2022-11-08T14:52:31.011Z,13.30
2022-11-08T14:55:11.623Z,12.80
2022-11-08T14:57:45.728Z,12.40
2022-11-08T15:00:26.947Z,12.20
2022-11-08T15:03:03.156Z,12.10
2022-11-08T15:05:47.294Z,11.90
2022-11-08T15:08:36.668Z,11.80
2022-11-08T15:11:28.293Z,11.60
2022-11-08T15:14:16.701Z,11.60
2022-11-08T15:16:49.922Z,11.50
2022-11-08T15:20:02.989Z,11.30
2022-11-08T15:22:36.731Z,11.20
2022-11-08T15:25:24.865Z,11.10
2022-11-08T15:28:12.503Z,11.00
2022-11-08T15:30:43.897Z,10.90
2022-11-08T15:33:37.001Z,10.80
2022-11-08T15:36:15.384Z,10.80
2022-11-08T15:38:49.121Z,10.70
2022-11-08T15:41:41.694Z,10.70
2022-11-08T15:44:25.820Z,10.60
2022-11-08T15:46:55.598Z,10.50
2022-11-08T15:49:29.576Z,10.40
2022-11-08T15:51:58.648Z,10.40
2022-11-08T15:54:26.909Z,10.40
2022-11-08T15:56:56.564Z,10.30
2022-11-08T15:59:30.035Z,10.30
2022-11-08T16:02:01.844Z,10.30
2022-11-08T16:04:29.987Z,10.20
2022-11-08T16:06:58.061Z,10.30
2022-11-08T16:09:25.065Z,10.20
2022-11-08T16:11:52.174Z,10.20
2022-11-08T16:14:24.824Z,10.20
2022-11-08T16:16:51.911Z,10.20
2022-11-08T16:19:24.438Z,10.20
2022-11-08T16:21:52.783Z,10.20
2022-11-08T16:24:19.752Z,10.20
2022-11-08T16:26:48.391Z,10.20
2022-11-08T16:29:23.754Z,10.10
2022-11-08T16:31:52.088Z,10.10
2022-11-08T16:34:19.842Z,10.00
2022-11-08T16:36:49.627Z,9.90
2022-11-08T16:39:22.888Z,9.80
2022-11-08T16:41:49.771Z,9.70
2022-11-08T16:44:16.731Z,9.70
2022-11-08T16:46:43.738Z,9.70
2022-11-08T16:49:32.414Z,9.60
2022-11-08T16:51:59.282Z,9.50
2022-11-08T16:54:28.400Z,9.50
2022-11-08T16:57:20.724Z,9.40
2022-11-08T16:59:43.678Z,9.40
2022-11-08T17:02:30.737Z,9.30
2022-11-08T17:04:57.614Z,9.40
2022-11-08T17:07:28.154Z,9.30
2022-11-08T17:09:55.154Z,9.40
2022-11-08T17:12:22.071Z,9.40
2022-11-08T17:14:49.091Z,9.40
2022-11-08T17:17:16.067Z,9.40
2022-11-08T17:19:42.956Z,9.50
2022-11-08T17:22:09.851Z,9.50
2022-11-08T17:24:37.060Z,9.60
2022-11-08T17:27:04.001Z,9.60
2022-11-08T17:29:30.865Z,9.60
2022-11-08T17:31:57.733Z,9.60
2022-11-08T17:34:24.651Z,9.70
2022-11-08T17:36:52.833Z,9.70
2022-11-08T17:39:19.717Z,9.70
2022-11-08T17:41:46.828Z,9.70
2022-11-08T17:44:14.551Z,9.80
2022-11-08T17:46:41.468Z,9.80
2022-11-08T17:49:09.498Z,9.70
2022-11-08T17:51:36.532Z,9.60
2022-11-08T17:54:03.684Z,9.50
2022-11-08T17:56:31.116Z,9.50
2022-11-08T17:58:57.994Z,9.50
2022-11-08T18:01:25.092Z,9.50
2022-11-08T18:03:52.051Z,9.50
2022-11-08T18:06:19.154Z,9.50
2022-11-08T18:08:46.052Z,9.40
2022-11-08T18:11:13.096Z,9.40
2022-11-08T18:13:40.160Z,9.40
2022-11-08T18:16:18.749Z,9.40
2022-11-08T18:18:47.169Z,9.30
2022-11-08T18:21:16.287Z,9.30
2022-11-08T18:23:47.055Z,9.10
2022-11-08T18:26:16.079Z,9.10
2022-11-08T18:28:44.992Z,9.10
2022-11-08T18:31:18.152Z,9.20
2022-11-08T18:33:45.814Z,9.20
2022-11-08T18:36:18.902Z,9.20
2022-11-08T18:38:49.010Z,9.20
2022-11-08T18:41:28.914Z,9.20
2022-11-08T18:43:58.988Z,9.20
2022-11-08T18:46:32.575Z,9.20
2022-11-08T18:48:59.825Z,9.20
2022-11-08T18:51:26.917Z,9.10
2022-11-08T18:53:53.966Z,9.00
2022-11-08T18:56:22.006Z,9.00
2022-11-08T18:58:49.847Z,9.00
2022-11-08T19:01:17.426Z,9.00
2022-11-08T19:03:45.626Z,9.10
2022-11-08T19:06:12.518Z,9.10
2022-11-08T19:08:39.406Z,9.10
2022-11-08T19:11:12.894Z,9.10
2022-11-08T19:13:41.414Z,9.10
2022-11-08T19:16:17.630Z,9.10
2022-11-08T19:18:46.746Z,9.10
2022-11-08T19:21:34.373Z,9.00
2022-11-08T19:24:01.406Z,9.00
2022-11-08T19:26:29.179Z,8.90
2022-11-08T19:28:57.435Z,8.90
2022-11-08T19:31:25.968Z,8.90
2022-11-08T19:33:54.324Z,8.80
2022-11-08T19:36:28.841Z,8.80
2022-11-08T19:38:58.213Z,8.70
2022-11-08T19:41:28.918Z,8.60
2022-11-08T19:43:55.947Z,8.60
2022-11-08T19:46:28.973Z,8.50
2022-11-08T19:48:57.091Z,8.40
2022-11-08T19:51:29.009Z,8.40
2022-11-08T19:54:10.219Z,8.50
2022-11-08T19:59:24.899Z,8.60
2022-11-08T20:01:52.024Z,8.70
2022-11-08T20:04:19.100Z,8.70
2022-11-08T20:06:46.396Z,8.80
2022-11-08T20:09:13.446Z,8.80
2022-11-08T20:11:41.973Z,8.80
2022-11-08T20:14:12.671Z,8.90
2022-11-08T20:16:42.982Z,8.90
2022-11-08T20:19:16.381Z,8.90
2022-11-08T20:21:45.946Z,9.00
2022-11-08T20:24:14.924Z,9.10
2022-11-08T20:26:43.261Z,9.10
2022-11-08T20:29:10.917Z,9.20
2022-11-08T20:31:39.056Z,9.20
2022-11-08T20:34:10.146Z,9.30
2022-11-08T20:36:38.618Z,9.30
2022-11-08T20:39:07.978Z,9.30
2022-11-08T20:41:37.233Z,9.30
2022-11-08T20:44:06.497Z,9.30
2022-11-08T20:46:36.446Z,9.50
2022-11-08T20:49:05.699Z,9.60
2022-11-08T20:51:34.164Z,9.60
2022-11-08T20:54:01.892Z,9.70
2022-11-08T20:56:29.726Z,9.70
2022-11-08T20:58:57.135Z,9.70
2022-11-08T21:01:27.899Z,9.60
2022-11-08T21:03:56.160Z,9.60
2022-11-08T21:06:26.722Z,9.50
2022-11-08T21:09:01.012Z,9.40
2022-11-08T21:11:34.494Z,9.30
2022-11-08T21:14:03.840Z,9.10
2022-11-08T21:16:35.373Z,9.00
2022-11-08T21:19:06.180Z,8.90
2022-11-08T21:21:33.201Z,8.80
2022-11-08T21:24:00.236Z,8.80
2022-11-08T21:26:27.164Z,8.70
2022-11-08T21:28:54.477Z,8.60
2022-11-08T21:31:21.531Z,8.60
2022-11-08T21:33:48.664Z,8.70
2022-11-08T21:36:17.194Z,8.90
2022-11-08T21:38:44.485Z,9.00
2022-11-08T21:41:11.757Z,9.00
2022-11-08T21:43:43.377Z,9.00
2022-11-08T21:46:26.701Z,9.00
2022-11-08T21:48:58.293Z,9.00
2022-11-08T21:51:27.171Z,9.00
2022-11-08T21:53:56.989Z,9.00
2022-11-08T21:56:29.740Z,8.90
2022-11-08T21:58:57.218Z,8.80
2022-11-08T22:01:28.817Z,8.70
2022-11-08T22:03:59.614Z,8.70
2022-11-08T22:06:28.444Z,8.60
2022-11-08T22:08:55.897Z,8.60
2022-11-08T22:11:23.197Z,8.50
2022-11-08T22:13:50.101Z,8.60
2022-11-08T22:16:16.969Z,8.60
2022-11-08T22:19:04.876Z,8.60
2022-11-08T22:21:49.357Z,8.60
2022-11-08T22:24:21.895Z,8.60
2022-11-08T22:26:51.983Z,8.60
2022-11-08T22:29:19.657Z,8.60
2022-11-08T22:31:47.105Z,8.60
2022-11-08T22:34:14.799Z,8.70
2022-11-08T22:36:45.599Z,8.80
2022-11-08T22:39:19.721Z,9.00
2022-11-08T22:41:50.646Z,9.20
2022-11-08T22:44:19.357Z,9.20
2022-11-08T22:46:47.813Z,9.30
2022-11-08T22:49:16.222Z,9.40
2022-11-08T22:51:44.426Z,9.40
2022-11-08T22:54:12.101Z,9.40
2022-11-08T22:56:40.182Z,9.40
2022-11-08T22:59:07.242Z,9.50
2022-11-08T23:01:34.747Z,9.40
2022-11-08T23:04:02.107Z,9.40
2022-11-08T23:06:29.179Z,9.40
2022-11-08T23:08:56.259Z,9.40
2022-11-08T23:11:41.986Z,9.30
2022-11-08T23:14:35.447Z,9.20
2022-11-08T23:17:05.367Z,9.20
2022-11-08T23:19:50.976Z,9.10
2022-11-08T23:22:37.114Z,9.10
2022-11-08T23:25:05.044Z,9.00
2022-11-08T23:27:50.744Z,8.90
2022-11-08T23:30:37.675Z,8.90
2022-11-08T23:33:06.684Z,8.90
2022-11-08T23:35:33.988Z,8.80
2022-11-08T23:38:00.880Z,8.80
2022-11-08T23:40:46.549Z,8.90
2022-11-08T23:43:38.386Z,8.90
2022-11-08T23:46:12.560Z,8.90
2022-11-08T23:48:40.660Z,8.90
2022-11-08T23:51:08.227Z,9.00
2022-11-08T23:53:37.396Z,9.10
2022-11-08T23:56:05.729Z,9.10
2022-11-08T23:58:33.771Z,9.10
